Time;durP1;ratioP1;P1;durP2;ratioP2;P2;SDS_P1;SDS_P2;PMS_P1;PMS_P2;Temp;Humidity;BMP_temperature;BMP_pressure;BME280_temperature;BME280_humidity;BME280_pressure;Samples;Min_cycle;Max_cycle;Signal;HPM_P1;HPM_P2
2023/12/08 00:00:36;;;;;;;17.85;11.13;;;;;;;;;;4990558;28;20057;-52
2023/12/08 00:03:02;;;;;;;18.27;10.50;;;;;;;;;;4988188;28;20536;-52
2023/12/08 00:05:29;;;;;;;19.48;10.27;;;;;;;;;;4981981;28;20045;-54
2023/12/08 00:07:55;;;;;;;18.55;10.85;;;;;;;;;;4988736;28;20038;-51
2023/12/08 00:10:21;;;;;;;17.55;10.35;;;;;;;;;;4985354;28;20026;-55
2023/12/08 00:12:47;;;;;;;21.20;11.45;;;;;;;;;;4984705;28;20181;-53
2023/12/08 00:15:13;;;;;;;18.20;10.65;;;;;;;;;;4979715;28;20072;-54
2023/12/08 00:17:39;;;;;;;19.10;10.23;;;;;;;;;;4984383;28;21160;-55
2023/12/08 00:20:06;;;;;;;20.30;11.63;;;;;;;;;;4985949;28;20127;-54
2023/12/08 00:22:32;;;;;;;21.80;11.70;;;;;;;;;;4983737;28;20286;-53
2023/12/08 00:24:59;;;;;;;20.23;11.48;;;;;;;;;;4989773;28;20034;-52
2023/12/08 00:27:24;;;;;;;22.13;12.15;;;;;;;;;;4987164;28;20326;-53
2023/12/08 00:29:50;;;;;;;21.00;11.32;;;;;;;;;;4989476;28;20045;-51
2023/12/08 00:32:16;;;;;;;20.63;10.55;;;;;;;;;;4985557;28;20057;-51
2023/12/08 00:34:45;;;;;;;18.58;11.05;;;;;;;;;;4987990;28;20050;-52
2023/12/08 00:37:11;;;;;;;19.33;11.20;;;;;;;;;;4988507;28;20038;-53
2023/12/08 00:39:36;;;;;;;19.65;10.70;;;;;;;;;;4990180;28;20318;-53
2023/12/08 00:42:03;;;;;;;18.83;11.32;;;;;;;;;;4990862;28;20037;-52
2023/12/08 00:44:28;;;;;;;20.77;11.18;;;;;;;;;;4993964;28;20049;-53
2023/12/08 00:46:54;;;;;;;17.83;10.93;;;;;;;;;;4993910;28;20452;-53
2023/12/08 00:49:20;;;;;;;19.05;11.48;;;;;;;;;;4987022;28;20038;-54
2023/12/08 00:51:46;;;;;;;18.88;11.57;;;;;;;;;;4991923;28;20038;-50
2023/12/08 00:54:14;;;;;;;18.60;11.32;;;;;;;;;;4987346;28;20061;-50
2023/12/08 00:56:40;;;;;;;19.20;11.18;;;;;;;;;;4987940;28;20054;-52
2023/12/08 00:59:06;;;;;;;19.50;11.60;;;;;;;;;;4982124;28;20144;-54
2023/12/08 01:01:32;;;;;;;17.80;10.75;;;;;;;;;;4991704;28;20049;-52
2023/12/08 01:03:58;;;;;;;18.42;11.10;;;;;;;;;;4991741;28;20401;-52
2023/12/08 01:06:24;;;;;;;17.95;10.70;;;;;;;;;;4978801;28;20048;-51
2023/12/08 01:08:50;;;;;;;18.55;10.90;;;;;;;;;;4981595;28;20042;-51
2023/12/08 01:11:17;;;;;;;19.08;11.25;;;;;;;;;;4986409;28;20034;-53
2023/12/08 01:13:43;;;;;;;19.05;10.60;;;;;;;;;;4984839;28;21072;-54
2023/12/08 01:16:09;;;;;;;22.25;11.68;;;;;;;;;;4984059;28;20307;-53
2023/12/08 01:18:35;;;;;;;20.83;11.05;;;;;;;;;;4986433;28;20048;-51
2023/12/08 01:21:01;;;;;;;19.35;10.85;;;;;;;;;;4989242;28;20401;-55
2023/12/08 01:23:27;;;;;;;17.10;10.10;;;;;;;;;;4988996;28;20129;-55
2023/12/08 01:25:53;;;;;;;20.17;11.02;;;;;;;;;;4989725;28;20049;-55
2023/12/08 01:28:18;;;;;;;19.17;11.10;;;;;;;;;;4984549;28;20034;-54
2023/12/08 01:30:44;;;;;;;18.38;10.82;;;;;;;;;;4982972;28;20096;-53
2023/12/08 01:33:11;;;;;;;18.45;10.77;;;;;;;;;;4988440;28;20038;-52
2023/12/08 01:35:37;;;;;;;17.77;10.57;;;;;;;;;;4990288;28;20034;-50
2023/12/08 01:38:02;;;;;;;17.92;10.55;;;;;;;;;;4984086;28;20030;-52
2023/12/08 01:40:28;;;;;;;20.65;10.85;;;;;;;;;;4991597;28;20778;-52
2023/12/08 01:42:54;;;;;;;20.40;11.40;;;;;;;;;;4992410;28;20447;-49
2023/12/08 01:45:20;;;;;;;18.95;11.88;;;;;;;;;;4992346;28;20532;-52
2023/12/08 01:47:47;;;;;;;19.27;11.52;;;;;;;;;;4990286;28;20124;-52
2023/12/08 01:50:13;;;;;;;21.50;12.05;;;;;;;;;;4990401;28;20038;-54
2023/12/08 01:52:40;;;;;;;20.80;11.50;;;;;;;;;;4993328;28;20623;-54
2023/12/08 01:55:07;;;;;;;21.02;11.70;;;;;;;;;;4987148;28;20485;-52
2023/12/08 01:57:33;;;;;;;20.65;12.10;;;;;;;;;;4988647;28;21194;-53
2023/12/08 02:00:00;;;;;;;20.70;12.35;;;;;;;;;;4992447;28;20096;-54
2023/12/08 02:02:26;;;;;;;21.15;11.23;;;;;;;;;;4990789;28;20034;-50
2023/12/08 02:04:54;;;;;;;23.48;12.73;;;;;;;;;;4989257;28;20033;-52
2023/12/08 02:07:21;;;;;;;24.27;12.85;;;;;;;;;;4984148;28;20041;-51
2023/12/08 02:09:47;;;;;;;21.52;12.80;;;;;;;;;;4985191;28;20065;-51
2023/12/08 02:12:13;;;;;;;25.35;13.38;;;;;;;;;;4987757;28;20132;-52
2023/12/08 02:14:39;;;;;;;24.40;13.55;;;;;;;;;;4989305;28;20328;-52
2023/12/08 02:17:17;;;;;;;23.20;12.85;;;;;;;;;;4987538;28;20332;-52
2023/12/08 02:19:44;;;;;;;20.73;12.77;;;;;;;;;;4986936;28;20603;-50
2023/12/08 02:22:10;;;;;;;21.48;12.55;;;;;;;;;;4989856;28;20575;-51
2023/12/08 02:24:36;;;;;;;22.17;12.95;;;;;;;;;;4987677;28;20564;-53
2023/12/08 02:27:02;;;;;;;23.42;13.55;;;;;;;;;;4984119;28;20034;-49
2023/12/08 02:29:28;;;;;;;22.85;13.27;;;;;;;;;;4981632;28;20044;-52
2023/12/08 02:32:05;;;;;;;23.98;13.90;;;;;;;;;;4985889;28;20570;-50
2023/12/08 02:34:32;;;;;;;22.30;13.40;;;;;;;;;;4978898;28;20060;-53
2023/12/08 02:36:58;;;;;;;24.25;13.85;;;;;;;;;;4983478;28;20046;-52
2023/12/08 02:39:25;;;;;;;24.80;13.93;;;;;;;;;;4977003;28;20363;-52
2023/12/08 02:41:51;;;;;;;24.40;14.55;;;;;;;;;;4984923;28;20466;-53
2023/12/08 02:44:17;;;;;;;24.40;14.75;;;;;;;;;;4984435;28;20049;-53
2023/12/08 02:46:43;;;;;;;26.23;14.20;;;;;;;;;;4991203;28;20061;-53
2023/12/08 02:49:09;;;;;;;26.02;14.82;;;;;;;;;;4990012;28;20121;-53
2023/12/08 02:51:35;;;;;;;27.83;15.68;;;;;;;;;;4993871;28;20612;-52
2023/12/08 02:54:01;;;;;;;27.83;15.63;;;;;;;;;;4990744;28;20034;-50
2023/12/08 02:56:27;;;;;;;28.67;15.00;;;;;;;;;;4989858;28;20046;-50
2023/12/08 02:58:53;;;;;;;27.05;14.68;;;;;;;;;;4990241;28;20046;-51
2023/12/08 03:01:19;;;;;;;28.33;14.57;;;;;;;;;;4986668;28;20413;-51
2023/12/08 03:03:45;;;;;;;28.48;15.18;;;;;;;;;;4989044;28;20100;-54
2023/12/08 03:06:11;;;;;;;28.38;15.82;;;;;;;;;;4984894;28;20041;-50
2023/12/08 03:08:37;;;;;;;33.50;16.05;;;;;;;;;;4987008;28;20501;-50
2023/12/08 03:11:03;;;;;;;28.30;14.55;;;;;;;;;;4985946;28;20038;-52
2023/12/08 03:13:29;;;;;;;28.73;15.57;;;;;;;;;;4989756;28;20108;-52
2023/12/08 03:15:55;;;;;;;25.88;15.10;;;;;;;;;;4982088;28;20042;-51
2023/12/08 03:18:21;;;;;;;27.42;15.77;;;;;;;;;;4985027;28;20037;-51
2023/12/08 03:20:47;;;;;;;28.35;15.23;;;;;;;;;;4991098;28;20042;-52
2023/12/08 03:23:13;;;;;;;30.00;16.27;;;;;;;;;;4989846;28;20038;-53
2023/12/08 03:25:39;;;;;;;28.85;14.52;;;;;;;;;;4994071;28;20045;-54
2023/12/08 03:28:05;;;;;;;27.98;14.75;;;;;;;;;;4984826;28;20081;-50
2023/12/08 03:30:31;;;;;;;27.60;14.63;;;;;;;;;;4983887;28;20042;-53
2023/12/08 03:32:57;;;;;;;26.15;14.98;;;;;;;;;;4981824;28;20034;-53
2023/12/08 03:35:23;;;;;;;27.25;14.85;;;;;;;;;;4983410;28;20049;-50
2023/12/08 03:37:49;;;;;;;29.88;15.23;;;;;;;;;;4990625;28;20034;-52
2023/12/08 03:40:15;;;;;;;26.88;15.07;;;;;;;;;;4987079;28;20038;-51
2023/12/08 03:42:41;;;;;;;25.38;15.57;;;;;;;;;;4987778;28;20034;-52
2023/12/08 03:45:07;;;;;;;29.58;15.23;;;;;;;;;;4985040;28;20480;-52
2023/12/08 03:47:33;;;;;;;31.05;15.00;;;;;;;;;;4992352;28;20568;-51
2023/12/08 03:49:59;;;;;;;30.05;15.43;;;;;;;;;;4993424;28;20157;-50
2023/12/08 03:52:25;;;;;;;31.33;15.55;;;;;;;;;;4991545;28;20116;-50
2023/12/08 03:54:50;;;;;;;25.90;15.20;;;;;;;;;;4993885;28;20069;-52
2023/12/08 03:57:16;;;;;;;29.00;15.43;;;;;;;;;;4986493;28;20038;-53
2023/12/08 03:59:43;;;;;;;30.60;16.38;;;;;;;;;;4984519;28;20037;-54
2023/12/08 04:02:09;;;;;;;29.70;16.10;;;;;;;;;;4983572;28;20834;-52
2023/12/08 04:04:35;;;;;;;26.55;14.40;;;;;;;;;;4990996;28;20482;-51
2023/12/08 04:07:02;;;;;;;27.77;15.38;;;;;;;;;;4989148;28;20545;-52
2023/12/08 04:09:29;;;;;;;27.85;15.55;;;;;;;;;;4982787;28;20030;-51
2023/12/08 04:11:55;;;;;;;27.88;15.98;;;;;;;;;;4991230;28;20561;-53
2023/12/08 04:14:21;;;;;;;29.48;16.00;;;;;;;;;;4982454;28;20075;-51
2023/12/08 04:16:47;;;;;;;29.33;16.50;;;;;;;;;;4984408;28;20156;-53
2023/12/08 04:19:13;;;;;;;30.25;16.25;;;;;;;;;;4988317;28;20185;-53
2023/12/08 04:21:39;;;;;;;31.20;16.80;;;;;;;;;;4988103;28;20034;-50
2023/12/08 04:24:06;;;;;;;32.40;16.70;;;;;;;;;;4986138;28;20564;-49
2023/12/08 04:26:31;;;;;;;27.80;16.10;;;;;;;;;;4987522;28;20040;-54
2023/12/08 04:28:57;;;;;;;29.75;16.42;;;;;;;;;;4985265;28;20267;-50
2023/12/08 04:31:23;;;;;;;29.10;16.08;;;;;;;;;;4985276;28;20561;-52
2023/12/08 04:33:49;;;;;;;27.10;15.63;;;;;;;;;;4981358;28;20043;-52
2023/12/08 04:36:15;;;;;;;29.58;16.15;;;;;;;;;;4982394;28;20615;-54
2023/12/08 04:38:41;;;;;;;35.35;17.48;;;;;;;;;;4986553;28;20121;-50
2023/12/08 04:41:08;;;;;;;34.38;18.98;;;;;;;;;;4987544;28;20034;-55
2023/12/08 04:43:34;;;;;;;35.67;18.55;;;;;;;;;;4988212;28;20453;-54
2023/12/08 04:45:59;;;;;;;41.13;19.58;;;;;;;;;;4991920;28;20544;-53
2023/12/08 04:48:25;;;;;;;34.53;18.67;;;;;;;;;;4989037;28;20096;-53
2023/12/08 04:50:52;;;;;;;34.00;18.55;;;;;;;;;;4988727;28;20561;-55
2023/12/08 04:53:18;;;;;;;36.47;19.80;;;;;;;;;;4983101;28;20833;-56
2023/12/08 04:55:44;;;;;;;35.33;19.38;;;;;;;;;;4990801;28;20068;-55
2023/12/08 04:58:10;;;;;;;37.17;19.25;;;;;;;;;;4982117;28;20524;-55
2023/12/08 05:00:36;;;;;;;38.58;17.65;;;;;;;;;;4984808;28;20045;-55
2023/12/08 05:03:02;;;;;;;38.83;20.45;;;;;;;;;;4983641;28;20069;-51
2023/12/08 05:05:28;;;;;;;41.38;20.80;;;;;;;;;;4991066;28;20048;-53
2023/12/08 05:07:54;;;;;;;41.20;20.88;;;;;;;;;;4984313;28;20496;-52
2023/12/08 05:10:20;;;;;;;39.13;20.30;;;;;;;;;;4984635;28;20060;-51
2023/12/08 05:12:47;;;;;;;39.97;20.45;;;;;;;;;;4985600;28;20909;-50
2023/12/08 05:15:13;;;;;;;44.90;21.67;;;;;;;;;;4988488;28;20034;-53
2023/12/08 05:17:39;;;;;;;41.17;20.67;;;;;;;;;;4986851;28;20092;-52
2023/12/08 05:20:05;;;;;;;38.47;20.08;;;;;;;;;;4994059;28;20112;-53
2023/12/08 05:22:31;;;;;;;37.67;20.52;;;;;;;;;;4991421;28;20069;-53
2023/12/08 05:24:57;;;;;;;41.67;21.85;;;;;;;;;;4976259;28;20129;-51
2023/12/08 05:27:23;;;;;;;42.35;21.00;;;;;;;;;;4989882;28;20121;-53
2023/12/08 05:29:49;;;;;;;45.95;22.08;;;;;;;;;;4986031;28;20034;-52
2023/12/08 05:32:15;;;;;;;38.97;21.33;;;;;;;;;;4988724;28;20448;-52
2023/12/08 05:34:41;;;;;;;42.38;21.90;;;;;;;;;;4986824;28;20077;-52
2023/12/08 05:37:07;;;;;;;41.35;22.33;;;;;;;;;;4984300;28;20038;-50
2023/12/08 05:39:33;;;;;;;43.45;21.13;;;;;;;;;;4985051;28;20153;-53
2023/12/08 05:41:59;;;;;;;40.55;22.38;;;;;;;;;;4979946;28;20034;-52
2023/12/08 05:44:25;;;;;;;40.50;21.92;;;;;;;;;;4979263;28;20072;-51
2023/12/08 05:46:51;;;;;;;48.53;22.75;;;;;;;;;;4994752;28;20041;-50
2023/12/08 05:49:17;;;;;;;44.53;21.98;;;;;;;;;;4981453;28;20035;-51
2023/12/08 05:51:43;;;;;;;46.67;22.88;;;;;;;;;;4986944;28;20038;-53
2023/12/08 05:54:09;;;;;;;43.83;21.65;;;;;;;;;;4971021;28;20426;-50
2023/12/08 05:56:35;;;;;;;46.53;22.08;;;;;;;;;;4985158;28;20877;-52
2023/12/08 05:59:02;;;;;;;44.60;22.35;;;;;;;;;;4983700;28;20457;-51
2023/12/08 06:01:28;;;;;;;44.33;23.00;;;;;;;;;;4986723;28;20038;-53
2023/12/08 06:03:54;;;;;;;42.53;23.40;;;;;;;;;;4990766;28;20043;-50
2023/12/08 06:06:21;;;;;;;45.97;22.23;;;;;;;;;;4990035;28;20048;-54
2023/12/08 06:08:47;;;;;;;43.63;23.90;;;;;;;;;;4979139;28;20042;-53
2023/12/08 06:11:13;;;;;;;49.88;23.45;;;;;;;;;;4978196;28;20056;-55
2023/12/08 06:13:39;;;;;;;45.95;23.67;;;;;;;;;;4981215;28;20038;-55
2023/12/08 06:16:05;;;;;;;43.03;22.63;;;;;;;;;;4982316;28;20034;-53
2023/12/08 06:18:31;;;;;;;43.28;23.55;;;;;;;;;;4986856;28;20427;-54
2023/12/08 06:20:58;;;;;;;45.88;23.42;;;;;;;;;;4980695;28;20652;-54
2023/12/08 06:23:24;;;;;;;46.95;23.63;;;;;;;;;;4985841;28;20121;-54
2023/12/08 06:25:51;;;;;;;44.00;23.13;;;;;;;;;;4982222;28;20041;-55
2023/12/08 06:28:17;;;;;;;40.45;21.92;;;;;;;;;;4987901;28;20505;-55
2023/12/08 06:30:43;;;;;;;43.17;22.35;;;;;;;;;;4994245;28;20034;-55
2023/12/08 06:33:09;;;;;;;42.03;23.48;;;;;;;;;;4987375;28;20093;-55
2023/12/08 06:35:36;;;;;;;42.28;22.70;;;;;;;;;;4983985;28;20111;-54
2023/12/08 06:38:04;;;;;;;42.83;23.15;;;;;;;;;;4986250;28;20476;-55
2023/12/08 06:40:30;;;;;;;46.25;23.45;;;;;;;;;;4987040;28;20100;-55
2023/12/08 06:42:56;;;;;;;42.65;23.20;;;;;;;;;;4990325;28;20049;-55
2023/12/08 06:45:22;;;;;;;46.22;23.13;;;;;;;;;;5002043;28;20053;-55
2023/12/08 06:47:48;;;;;;;44.90;24.15;;;;;;;;;;5001627;28;20100;-55
2023/12/08 06:50:15;;;;;;;44.50;23.35;;;;;;;;;;5001374;28;20459;-54
2023/12/08 06:52:42;;;;;;;46.55;23.98;;;;;;;;;;4998264;28;20052;-54
2023/12/08 06:55:08;;;;;;;43.88;23.90;;;;;;;;;;4989472;28;20744;-55
2023/12/08 06:57:34;;;;;;;44.42;23.27;;;;;;;;;;4989619;28;20095;-55
2023/12/08 07:00:00;;;;;;;45.63;24.67;;;;;;;;;;4974469;28;20436;-52
2023/12/08 07:02:26;;;;;;;45.97;23.73;;;;;;;;;;4992191;28;21171;-53
2023/12/08 07:04:52;;;;;;;47.10;24.70;;;;;;;;;;4988359;28;20125;-54
2023/12/08 07:07:20;;;;;;;43.22;23.83;;;;;;;;;;4996900;28;20073;-54
2023/12/08 07:09:45;;;;;;;51.45;24.45;;;;;;;;;;4997420;28;20121;-53
2023/12/08 07:12:11;;;;;;;47.00;24.98;;;;;;;;;;4991106;28;20056;-54
2023/12/08 07:14:37;;;;;;;48.53;24.95;;;;;;;;;;4993737;28;20129;-54
2023/12/08 07:17:04;;;;;;;45.63;24.35;;;;;;;;;;4989071;28;20103;-54
2023/12/08 07:19:30;;;;;;;49.78;24.98;;;;;;;;;;4985579;28;20474;-54
2023/12/08 07:21:56;;;;;;;43.67;23.80;;;;;;;;;;4999664;28;20347;-55
2023/12/08 07:24:22;;;;;;;46.72;24.75;;;;;;;;;;5001005;28;20107;-54
2023/12/08 07:26:54;;;;;;;47.70;26.00;;;;;;;;;;4995615;28;20045;-52
2023/12/08 07:29:20;;;;;;;46.42;24.83;;;;;;;;;;4998787;28;20026;-55
2023/12/08 07:31:46;;;;;;;46.90;25.17;;;;;;;;;;5002745;28;20045;-54
2023/12/08 07:34:12;;;;;;;45.97;24.13;;;;;;;;;;4996587;28;20041;-54
2023/12/08 07:36:38;;;;;;;45.65;24.85;;;;;;;;;;4999387;28;20037;-54
2023/12/08 07:39:04;;;;;;;51.10;25.33;;;;;;;;;;4998085;28;20504;-53
2023/12/08 07:41:30;;;;;;;50.50;27.00;;;;;;;;;;5000670;28;20034;-52
2023/12/08 07:43:57;;;;;;;52.90;25.73;;;;;;;;;;4999186;28;20553;-54
2023/12/08 07:46:27;;;;;;;50.45;25.75;;;;;;;;;;4995053;28;20057;-54
2023/12/08 07:48:53;;;;;;;50.65;25.58;;;;;;;;;;5006034;28;20100;-53
2023/12/08 07:51:19;;;;;;;52.25;26.27;;;;;;;;;;5000406;28;20058;-52
2023/12/08 07:53:45;;;;;;;51.63;26.05;;;;;;;;;;4998988;28;20131;-53
2023/12/08 07:56:14;;;;;;;52.22;26.02;;;;;;;;;;4998268;28;20113;-52
2023/12/08 07:58:40;;;;;;;51.05;26.45;;;;;;;;;;4994946;28;20525;-53
2023/12/08 08:01:06;;;;;;;50.35;25.83;;;;;;;;;;5006175;28;20033;-53
2023/12/08 08:03:32;;;;;;;53.58;26.52;;;;;;;;;;4994336;28;20030;-54
2023/12/08 08:05:58;;;;;;;54.15;27.10;;;;;;;;;;5004730;28;20565;-54
2023/12/08 08:08:24;;;;;;;50.67;26.63;;;;;;;;;;5005568;28;20044;-55
2023/12/08 08:10:50;;;;;;;51.17;26.63;;;;;;;;;;5005557;28;20125;-54
2023/12/08 08:13:16;;;;;;;50.90;25.25;;;;;;;;;;5001704;28;20038;-54
2023/12/08 08:15:42;;;;;;;51.17;27.38;;;;;;;;;;5007792;28;20034;-53
2023/12/08 08:18:08;;;;;;;55.60;26.75;;;;;;;;;;5007625;28;20033;-53
2023/12/08 08:20:34;;;;;;;55.58;27.95;;;;;;;;;;5005905;28;20072;-54
2023/12/08 08:23:00;;;;;;;51.05;26.30;;;;;;;;;;5001691;28;20041;-54
2023/12/08 08:25:26;;;;;;;50.70;26.17;;;;;;;;;;5004872;28;20093;-54
2023/12/08 08:27:53;;;;;;;54.63;26.40;;;;;;;;;;4996610;28;20049;-54
2023/12/08 08:30:20;;;;;;;52.03;26.50;;;;;;;;;;5000290;28;20360;-54
2023/12/08 08:32:46;;;;;;;52.50;27.33;;;;;;;;;;4995206;28;20048;-55
2023/12/08 08:35:12;;;;;;;49.00;26.48;;;;;;;;;;5011342;28;20433;-55
2023/12/08 08:37:38;;;;;;;49.67;25.42;;;;;;;;;;4995101;28;20200;-55
2023/12/08 08:40:05;;;;;;;51.90;26.08;;;;;;;;;;4999986;28;20276;-55
2023/12/08 08:42:31;;;;;;;51.17;27.52;;;;;;;;;;5003291;28;20041;-54
2023/12/08 08:44:57;;;;;;;52.03;27.45;;;;;;;;;;5007053;28;20569;-53
2023/12/08 08:47:23;;;;;;;51.40;26.80;;;;;;;;;;4999194;28;20050;-53
2023/12/08 08:49:50;;;;;;;52.33;27.15;;;;;;;;;;4994581;28;20303;-55
2023/12/08 08:52:16;;;;;;;50.13;26.88;;;;;;;;;;4999266;28;20041;-52
2023/12/08 08:54:42;;;;;;;49.85;27.23;;;;;;;;;;4997629;28;20042;-56
2023/12/08 08:57:08;;;;;;;53.13;27.58;;;;;;;;;;4998255;28;20046;-55
2023/12/08 08:59:33;;;;;;;51.33;26.73;;;;;;;;;;5004522;28;20071;-57
2023/12/08 09:01:59;;;;;;;50.42;26.80;;;;;;;;;;4998802;28;20034;-56
2023/12/08 09:04:25;;;;;;;52.25;26.50;;;;;;;;;;5000804;28;20049;-57
2023/12/08 09:06:51;;;;;;;57.17;27.80;;;;;;;;;;5001209;28;20176;-56
2023/12/08 09:09:17;;;;;;;56.08;27.55;;;;;;;;;;4996885;28;20080;-56
2023/12/08 09:11:43;;;;;;;51.83;26.30;;;;;;;;;;4996777;28;20030;-56
2023/12/08 09:14:09;;;;;;;51.55;26.70;;;;;;;;;;4998617;28;20029;-55
2023/12/08 09:16:35;;;;;;;51.25;26.83;;;;;;;;;;4997236;28;20031;-57
2023/12/08 09:19:01;;;;;;;50.22;27.95;;;;;;;;;;4998056;28;20045;-56
2023/12/08 09:21:27;;;;;;;54.28;28.88;;;;;;;;;;4999181;28;20492;-55
2023/12/08 09:23:53;;;;;;;56.42;28.15;;;;;;;;;;5004916;28;20046;-56
2023/12/08 09:26:19;;;;;;;55.85;28.25;;;;;;;;;;4998265;28;20037;-56
2023/12/08 09:28:46;;;;;;;56.10;29.40;;;;;;;;;;5002319;28;20746;-56
2023/12/08 09:31:12;;;;;;;59.47;28.50;;;;;;;;;;4996612;28;20088;-55
2023/12/08 09:33:41;;;;;;;57.83;29.08;;;;;;;;;;5003874;28;20132;-56
2023/12/08 09:36:07;;;;;;;54.58;29.08;;;;;;;;;;4989769;28;20258;-56
2023/12/08 09:38:34;;;;;;;58.28;29.08;;;;;;;;;;5003596;28;20051;-57
2023/12/08 09:41:01;;;;;;;63.35;30.55;;;;;;;;;;4993496;28;20117;-56
2023/12/08 09:43:29;;;;;;;60.80;30.65;;;;;;;;;;5000747;28;20050;-55
2023/12/08 09:45:55;;;;;;;62.40;30.98;;;;;;;;;;4999363;28;20493;-55
2023/12/08 09:48:24;;;;;;;63.25;31.25;;;;;;;;;;4998458;28;20417;-53
2023/12/08 09:50:51;;;;;;;64.70;32.53;;;;;;;;;;5002027;28;20212;-55
2023/12/08 09:53:17;;;;;;;63.83;33.38;;;;;;;;;;4994538;28;20461;-56
2023/12/08 09:55:46;;;;;;;57.33;30.60;;;;;;;;;;5001154;28;20044;-52
2023/12/08 09:58:12;;;;;;;63.53;31.25;;;;;;;;;;5004341;28;20034;-56
2023/12/08 10:00:38;;;;;;;60.08;29.40;;;;;;;;;;4994207;28;20100;-55
2023/12/08 10:03:04;;;;;;;58.95;31.63;;;;;;;;;;4988713;28;20142;-55
2023/12/08 10:05:30;;;;;;;62.78;30.83;;;;;;;;;;4999012;28;20052;-55
2023/12/08 10:07:57;;;;;;;62.35;29.85;;;;;;;;;;4996532;28;20041;-55
2023/12/08 10:10:24;;;;;;;60.70;30.88;;;;;;;;;;4990126;28;20063;-56
2023/12/08 10:12:50;;;;;;;62.60;31.50;;;;;;;;;;4997817;28;20076;-54
2023/12/08 10:15:17;;;;;;;64.35;32.15;;;;;;;;;;4993787;28;20125;-54
2023/12/08 10:17:47;;;;;;;64.90;31.20;;;;;;;;;;4995255;28;20496;-56
2023/12/08 10:20:14;;;;;;;60.08;30.25;;;;;;;;;;4988996;28;20045;-55
2023/12/08 10:22:58;;;;;;;80.22;33.35;;;;;;;;;;4996763;28;20059;-55
2023/12/08 10:25:25;;;;;;;62.33;31.00;;;;;;;;;;4996214;28;20037;-54
2023/12/08 10:27:52;;;;;;;63.92;31.85;;;;;;;;;;5003353;28;20048;-54
2023/12/08 10:30:18;;;;;;;64.28;31.35;;;;;;;;;;5007079;28;20037;-54
2023/12/08 10:32:45;;;;;;;63.63;30.05;;;;;;;;;;4996180;28;20122;-56
2023/12/08 10:35:14;;;;;;;68.40;32.22;;;;;;;;;;4998769;28;20034;-56
2023/12/08 10:37:40;;;;;;;68.18;30.98;;;;;;;;;;5003280;28;20045;-55
2023/12/08 10:40:13;;;;;;;68.25;32.33;;;;;;;;;;4998932;28;20038;-55
2023/12/08 10:42:40;;;;;;;71.57;32.30;;;;;;;;;;4996068;28;20488;-55
2023/12/08 10:45:10;;;;;;;63.97;32.33;;;;;;;;;;4998028;28;20038;-53
2023/12/08 10:47:37;;;;;;;63.58;30.77;;;;;;;;;;5003639;28;20045;-55
2023/12/08 10:50:03;;;;;;;72.45;32.90;;;;;;;;;;5008756;28;20041;-54
2023/12/08 10:52:31;;;;;;;62.38;31.08;;;;;;;;;;4999411;28;20408;-58
2023/12/08 10:54:57;;;;;;;65.80;32.78;;;;;;;;;;5003614;28;20056;-56
2023/12/08 10:57:23;;;;;;;75.90;34.13;;;;;;;;;;4999449;28;20050;-58
2023/12/08 10:59:53;;;;;;;65.95;32.13;;;;;;;;;;4996721;28;20037;-56
2023/12/08 11:02:21;;;;;;;73.88;33.35;;;;;;;;;;4993204;28;20061;-56
2023/12/08 11:04:53;;;;;;;69.90;33.10;;;;;;;;;;5000584;28;20065;-55
2023/12/08 11:07:22;;;;;;;50.78;23.77;;;;;;;;;;4995426;28;20533;-56
2023/12/08 11:09:50;;;;;;;70.45;31.10;;;;;;;;;;4994637;28;20049;-55
2023/12/08 11:12:17;;;;;;;66.45;31.83;;;;;;;;;;4992424;28;20088;-55
2023/12/08 11:14:51;;;;;;;64.88;31.85;;;;;;;;;;4997756;28;20125;-56
2023/12/08 11:17:23;;;;;;;71.53;32.15;;;;;;;;;;4989393;28;20556;-55
2023/12/08 11:19:50;;;;;;;52.75;23.98;;;;;;;;;;4998689;28;20052;-55
2023/12/08 11:22:16;;;;;;;75.07;33.80;;;;;;;;;;4994183;28;20509;-55
2023/12/08 11:24:42;;;;;;;80.47;34.28;;;;;;;;;;4995256;28;20117;-54
2023/12/08 11:27:13;;;;;;;71.10;32.92;;;;;;;;;;4994669;28;20485;-55
2023/12/08 11:29:44;;;;;;;72.03;33.53;;;;;;;;;;4997834;28;20129;-55
2023/12/08 11:32:19;;;;;;;80.22;34.03;;;;;;;;;;5000114;28;20042;-55
2023/12/08 11:34:52;;;;;;;76.70;33.83;;;;;;;;;;4999323;28;20034;-54
2023/12/08 11:37:18;;;;;;;64.40;31.88;;;;;;;;;;4999880;28;20186;-54
2023/12/08 11:39:44;;;;;;;79.53;32.60;;;;;;;;;;4999971;28;20165;-57
2023/12/08 11:42:10;;;;;;;69.07;32.45;;;;;;;;;;4999746;28;20093;-56
2023/12/08 11:44:37;;;;;;;78.22;34.75;;;;;;;;;;4998283;28;20481;-56
2023/12/08 11:47:05;;;;;;;81.82;34.75;;;;;;;;;;5001424;28;20401;-55
2023/12/08 11:49:31;;;;;;;82.07;33.42;;;;;;;;;;5000065;28;20056;-56
2023/12/08 11:52:18;;;;;;;80.05;33.80;;;;;;;;;;4999516;28;20040;-57
2023/12/08 11:55:09;;;;;;;79.45;34.40;;;;;;;;;;5000239;28;20537;-56
2023/12/08 11:57:40;;;;;;;73.35;33.00;;;;;;;;;;4998659;28;20393;-54
2023/12/08 12:00:09;;;;;;;72.95;34.45;;;;;;;;;;4998327;28;20534;-57
2023/12/08 12:02:35;;;;;;;73.47;34.95;;;;;;;;;;4993155;28;20038;-57
2023/12/08 12:05:01;;;;;;;75.78;32.33;;;;;;;;;;5000686;28;20038;-57
2023/12/08 12:07:27;;;;;;;74.75;34.92;;;;;;;;;;4995331;28;20050;-57
2023/12/08 12:09:54;;;;;;;70.05;33.47;;;;;;;;;;4999944;28;20045;-57
2023/12/08 12:12:26;;;;;;;78.75;34.30;;;;;;;;;;4999019;28;20056;-56
2023/12/08 12:14:55;;;;;;;69.70;31.35;;;;;;;;;;4998682;28;20041;-56
2023/12/08 12:17:21;;;;;;;66.85;32.75;;;;;;;;;;4999006;28;20104;-56
2023/12/08 12:19:48;;;;;;;76.50;33.92;;;;;;;;;;5001234;28;20057;-55
2023/12/08 12:22:14;;;;;;;75.18;31.67;;;;;;;;;;4993783;28;20049;-56
2023/12/08 12:24:41;;;;;;;69.05;32.35;;;;;;;;;;4993757;28;20125;-56
2023/12/08 12:27:07;;;;;;;67.70;31.38;;;;;;;;;;4987060;28;20152;-56
2023/12/08 12:29:36;;;;;;;65.10;31.77;;;;;;;;;;4997514;28;20115;-56
2023/12/08 12:32:07;;;;;;;63.20;30.25;;;;;;;;;;5000043;28;20088;-53
2023/12/08 12:34:33;;;;;;;77.40;33.08;;;;;;;;;;5000224;28;20041;-56
2023/12/08 12:36:59;;;;;;;67.65;30.70;;;;;;;;;;5004228;28;20037;-56
2023/12/08 12:39:25;;;;;;;65.95;31.65;;;;;;;;;;5003220;28;20065;-56
2023/12/08 12:41:56;;;;;;;74.47;31.20;;;;;;;;;;4992357;28;20062;-55
2023/12/08 12:44:22;;;;;;;64.57;28.75;;;;;;;;;;4989065;28;20038;-56
2023/12/08 12:46:48;;;;;;;65.10;28.58;;;;;;;;;;5003311;28;20049;-54
2023/12/08 12:49:17;;;;;;;66.57;29.65;;;;;;;;;;5000215;28;20041;-56
2023/12/08 12:51:43;;;;;;;64.25;28.08;;;;;;;;;;5002276;28;20030;-55
2023/12/08 12:54:09;;;;;;;69.28;27.85;;;;;;;;;;4997716;28;20057;-56
2023/12/08 12:56:37;;;;;;;65.45;27.52;;;;;;;;;;5001214;28;20777;-55
2023/12/08 12:59:03;;;;;;;68.47;28.02;;;;;;;;;;5003103;28;20057;-57
2023/12/08 13:01:29;;;;;;;70.85;29.60;;;;;;;;;;5003526;28;20045;-55
2023/12/08 13:03:55;;;;;;;60.90;27.95;;;;;;;;;;4996710;28;20045;-56
2023/12/08 13:06:31;;;;;;;60.53;28.63;;;;;;;;;;4993201;28;20034;-56
2023/12/08 13:08:58;;;;;;;63.38;27.83;;;;;;;;;;4996276;28;20449;-55
2023/12/08 13:11:24;;;;;;;67.60;28.58;;;;;;;;;;4999639;28;20060;-57
2023/12/08 13:13:50;;;;;;;77.78;30.60;;;;;;;;;;4997141;28;20042;-57
2023/12/08 13:16:16;;;;;;;71.55;29.02;;;;;;;;;;4998829;28;20068;-57
2023/12/08 13:18:46;;;;;;;61.42;27.05;;;;;;;;;;5002521;28;20441;-57
2023/12/08 13:21:12;;;;;;;66.75;28.20;;;;;;;;;;4998198;28;20028;-57
2023/12/08 13:23:38;;;;;;;62.30;26.25;;;;;;;;;;4998504;28;20038;-57
2023/12/08 13:26:07;;;;;;;69.82;27.80;;;;;;;;;;4998665;28;20256;-57
2023/12/08 13:28:33;;;;;;;62.10;27.85;;;;;;;;;;4989405;28;20064;-57
2023/12/08 13:30:59;;;;;;;45.55;23.63;;;;;;;;;;4999775;28;20697;-56
2023/12/08 13:33:25;;;;;;;78.75;26.92;;;;;;;;;;5000284;28;20049;-54
2023/12/08 13:35:55;;;;;;;59.85;26.83;;;;;;;;;;5004096;28;20073;-55
2023/12/08 13:38:22;;;;;;;60.67;27.55;;;;;;;;;;5003158;28;20120;-55
2023/12/08 13:40:48;;;;;;;67.93;27.52;;;;;;;;;;5005608;28;20128;-56
2023/12/08 13:43:14;;;;;;;67.63;29.52;;;;;;;;;;5003461;28;20041;-54
2023/12/08 13:45:40;;;;;;;62.13;28.25;;;;;;;;;;4999043;28;20037;-54
2023/12/08 13:48:06;;;;;;;58.22;26.23;;;;;;;;;;4988564;28;20038;-55
2023/12/08 13:50:32;;;;;;;58.47;26.75;;;;;;;;;;4999958;28;20359;-56
2023/12/08 13:52:58;;;;;;;60.17;26.58;;;;;;;;;;5003395;28;20079;-57
2023/12/08 13:55:24;;;;;;;57.83;26.95;;;;;;;;;;4998335;28;20045;-55
2023/12/08 13:57:50;;;;;;;56.97;25.95;;;;;;;;;;5000509;28;20345;-57
2023/12/08 14:00:17;;;;;;;57.08;26.13;;;;;;;;;;4997684;28;20050;-56
2023/12/08 14:02:43;;;;;;;58.13;26.63;;;;;;;;;;4999740;28;20607;-57
2023/12/08 14:05:10;;;;;;;59.17;25.50;;;;;;;;;;4991818;28;20129;-57
2023/12/08 14:07:36;;;;;;;54.90;25.83;;;;;;;;;;4998517;28;20116;-56
2023/12/08 14:10:02;;;;;;;69.93;26.33;;;;;;;;;;4995366;28;20087;-57
2023/12/08 14:12:28;;;;;;;61.03;25.55;;;;;;;;;;4998668;28;20175;-56